createdAt,value
2024-05-09T00:00:52.948Z,95589.16
2024-05-09T00:03:23.159Z,95592.03
2024-05-09T00:05:52.456Z,95590.97
2024-05-09T00:08:21.305Z,95585.44
2024-05-09T00:10:50.963Z,95577.50
2024-05-09T00:13:19.653Z,95575.41
2024-05-09T00:15:46.894Z,95577.00
2024-05-09T00:18:22.710Z,95581.28
2024-05-09T00:20:59.370Z,95575.72
2024-05-09T00:23:32.260Z,95573.84
2024-05-09T00:26:04.425Z,95577.06
2024-05-09T00:28:31.865Z,95567.84
2024-05-09T00:30:59.101Z,95576.84
2024-05-09T00:33:26.404Z,95571.53
2024-05-09T00:35:54.767Z,95560.94
2024-05-09T00:38:24.902Z,95568.09
2024-05-09T00:40:51.804Z,95563.34
2024-05-09T00:43:19.108Z,95564.16
2024-05-09T00:45:48.996Z,95562.53
2024-05-09T00:48:20.745Z,95552.75
2024-05-09T00:50:50.092Z,95551.72
2024-05-09T00:53:18.314Z,95555.16
2024-05-09T00:55:48.708Z,95549.84
2024-05-09T00:58:16.239Z,95549.56
2024-05-09T01:00:43.754Z,95556.16
2024-05-09T01:03:14.960Z,95546.59
2024-05-09T01:05:45.207Z,95555.31
2024-05-09T01:08:17.905Z,95544.72
2024-05-09T01:10:49.292Z,95542.06
2024-05-09T01:13:17.841Z,95540.56
2024-05-09T01:15:45.270Z,95544.00
2024-05-09T01:18:14.362Z,95549.84
2024-05-09T01:20:44.317Z,95548.50
2024-05-09T01:23:16.666Z,95544.25
2024-05-09T01:25:45.984Z,95545.84
2024-05-09T01:28:19.294Z,95550.09
2024-05-09T01:30:46.738Z,95547.44
2024-05-09T01:33:15.778Z,95552.75
2024-05-09T01:35:43.427Z,95544.56
2024-05-09T01:38:21.354Z,95548.00
2024-05-09T01:40:51.680Z,95556.22
2024-05-09T01:43:19.587Z,95552.22
2024-05-09T01:48:30.441Z,95554.28
2024-05-09T01:50:59.923Z,95554.53
2024-05-09T01:53:30.589Z,95547.38
2024-05-09T01:55:57.757Z,95549.00
2024-05-09T01:58:33.352Z,95541.06
2024-05-09T02:01:05.247Z,95543.69
2024-05-09T02:03:33.577Z,95544.50
2024-05-09T02:06:06.787Z,95543.69
2024-05-09T02:08:48.043Z,95540.25
2024-05-09T02:11:19.344Z,95537.59
2024-05-09T02:13:55.293Z,95536.00
2024-05-09T02:16:23.039Z,95531.97
2024-05-09T02:18:53.816Z,95526.94
2024-05-09T02:21:22.754Z,95524.03
2024-05-09T02:23:55.716Z,95523.25
2024-05-09T02:26:22.786Z,95533.84
2024-05-09T02:28:50.584Z,95531.50
2024-05-09T02:31:21.209Z,95533.34
2024-05-09T02:33:50.520Z,95536.00
2024-05-09T02:36:17.951Z,95535.44
2024-05-09T02:38:44.917Z,95528.78
2024-05-09T02:41:14.835Z,95533.28
2024-05-09T02:43:42.342Z,95533.03
2024-05-09T02:46:09.443Z,95534.41
2024-05-09T02:48:36.648Z,95529.09
2024-05-09T02:51:04.336Z,95531.50
2024-05-09T02:53:32.186Z,95529.66
2024-05-09T02:56:00.262Z,95525.41
2024-05-09T02:58:30.342Z,95523.00
2024-05-09T03:01:02.435Z,95526.47
2024-05-09T03:03:30.981Z,95530.47
2024-05-09T03:05:58.040Z,95522.03
2024-05-09T03:08:25.226Z,95531.31
2024-05-09T03:10:52.437Z,95526.03
2024-05-09T03:13:20.402Z,95529.72
2024-05-09T03:15:50.191Z,95530.75
2024-05-09T03:18:17.255Z,95531.03
2024-05-09T03:20:44.829Z,95529.09
2024-05-09T03:23:12.210Z,95530.97
2024-05-09T03:25:42.126Z,95530.41
2024-05-09T03:28:09.179Z,95530.06
2024-05-09T03:30:41.459Z,95532.19
2024-05-09T03:33:15.963Z,95538.50
2024-05-09T03:35:43.437Z,95538.78
2024-05-09T03:38:10.599Z,95536.34
2024-05-09T03:40:44.084Z,95536.63
2024-05-09T03:43:10.980Z,95535.00
2024-05-09T03:45:40.649Z,95523.84
2024-05-09T03:48:12.770Z,95536.53
2024-05-09T03:50:51.381Z,95528.84
2024-05-09T03:53:19.511Z,95525.63
2024-05-09T03:55:49.457Z,95529.91
2024-05-09T04:01:02.271Z,95538.69
2024-05-09T04:03:34.450Z,95544.78
2024-05-09T04:06:16.854Z,95540.56
2024-05-09T04:08:49.071Z,95543.19
2024-05-09T04:11:18.357Z,95537.91
2024-05-09T04:13:49.267Z,95538.69
2024-05-09T04:16:18.598Z,95542.72
2024-05-09T04:18:50.778Z,95543.19
2024-05-09T04:21:46.227Z,95543.44
2024-05-09T04:24:15.610Z,95548.72
2024-05-09T04:26:43.539Z,95551.38
2024-05-09T04:29:11.051Z,95545.28
2024-05-09T04:31:40.607Z,95551.38
2024-05-09T04:34:08.667Z,95547.66
2024-05-09T04:39:36.770Z,95555.88
2024-05-09T04:42:19.309Z,95553.94
2024-05-09T04:44:46.250Z,95556.53
2024-05-09T04:47:13.965Z,95561.25
2024-05-09T04:49:43.501Z,95557.03
2024-05-09T04:52:13.588Z,95551.72
2024-05-09T04:54:41.181Z,95560.47
2024-05-09T04:57:08.006Z,95563.38
2024-05-09T04:59:36.492Z,95557.03
2024-05-09T05:02:05.437Z,95555.72
2024-05-09T05:04:32.656Z,95561.59
2024-05-09T05:07:02.999Z,95549.72
2024-05-09T05:09:36.732Z,95559.25
2024-05-09T05:12:23.834Z,95561.16
2024-05-09T05:14:51.246Z,95560.44
2024-05-09T05:17:19.193Z,95555.94
2024-05-09T05:19:46.250Z,95561.03
2024-05-09T05:22:15.784Z,95562.16
2024-05-09T05:24:45.784Z,95562.72
2024-05-09T05:27:12.568Z,95570.19
2024-05-09T05:29:39.700Z,95565.97
2024-05-09T05:32:07.067Z,95566.53
2024-05-09T05:34:34.235Z,95570.53
2024-05-09T05:37:01.404Z,95573.19
2024-05-09T05:39:28.498Z,95571.09
2024-05-09T05:42:06.556Z,95571.41
2024-05-09T05:44:49.403Z,95575.19
2024-05-09T05:47:24.921Z,95566.44
2024-05-09T05:49:52.058Z,95579.41
2024-05-09T05:52:21.645Z,95579.97
2024-05-09T05:54:51.165Z,95575.25
2024-05-09T05:57:21.749Z,95578.44
2024-05-09T05:59:48.606Z,95575.53
2024-05-09T06:02:16.942Z,95577.13
2024-05-09T06:04:58.106Z,95582.69
2024-05-09T06:07:29.284Z,95585.91
2024-05-09T06:10:07.239Z,95586.44
2024-05-09T06:12:44.653Z,95587.00
2024-05-09T06:15:15.744Z,95584.09
2024-05-09T06:17:44.169Z,95588.34
2024-05-09T06:20:20.466Z,95583.59
2024-05-09T06:22:55.027Z,95582.31
2024-05-09T06:25:26.012Z,95583.91
2024-05-09T06:27:57.229Z,95582.88
2024-05-09T06:30:37.243Z,95591.84
2024-05-09T06:33:09.590Z,95587.91
2024-05-09T06:35:37.476Z,95583.44
2024-05-09T06:38:04.580Z,95594.56
2024-05-09T06:40:38.044Z,95596.19
2024-05-09T06:43:14.945Z,95591.69
2024-05-09T06:45:43.324Z,95593.78
2024-05-09T06:48:10.710Z,95595.91
2024-05-09T06:50:39.404Z,95600.47
2024-05-09T06:53:07.408Z,95594.44
2024-05-09T06:55:34.383Z,95599.25
2024-05-09T06:58:02.978Z,95593.94
2024-05-09T07:00:39.094Z,95598.97
2024-05-09T07:03:09.298Z,95600.59
2024-05-09T07:05:36.554Z,95596.38
2024-05-09T07:08:10.280Z,95600.19
2024-05-09T07:10:37.914Z,95593.88
2024-05-09T07:13:07.886Z,95596.34
2024-05-09T07:15:41.807Z,95593.41
2024-05-09T07:18:19.789Z,95590.78
2024-05-09T07:20:48.180Z,95588.13
2024-05-09T07:23:17.119Z,95590.81
2024-05-09T07:25:46.617Z,95586.38
2024-05-09T07:28:23.374Z,95591.47
2024-05-09T07:31:01.041Z,95593.44
2024-05-09T07:33:28.578Z,95584.44
2024-05-09T07:36:00.300Z,95598.00
2024-05-09T07:38:35.163Z,95591.66
2024-05-09T07:41:05.842Z,95587.44
2024-05-09T07:43:35.022Z,95593.84
2024-05-09T07:47:13.725Z,95591.19
2024-05-09T07:50:35.833Z,95593.84
2024-05-09T07:53:17.205Z,95590.63
2024-05-09T07:54:35.857Z,95584.03
2024-05-09T07:57:04.030Z,95585.66
2024-05-09T07:59:33.391Z,95583.00
2024-05-09T08:02:05.379Z,95580.34
2024-05-09T08:04:32.628Z,95584.66
2024-05-09T08:07:02.135Z,95579.94
2024-05-09T08:09:30.099Z,95579.72
2024-05-09T08:11:59.304Z,95579.50
2024-05-09T08:14:26.215Z,95581.91
2024-05-09T08:16:56.222Z,95579.53
2024-05-09T08:19:26.243Z,95582.69
2024-05-09T08:21:53.099Z,95575.25
2024-05-09T08:24:19.831Z,95583.81
2024-05-09T08:26:49.245Z,95583.34
2024-05-09T08:29:16.066Z,95589.84
2024-05-09T08:31:44.401Z,95581.63
2024-05-09T08:34:12.047Z,95581.94
2024-05-09T08:36:41.617Z,95585.72
2024-05-09T08:39:08.420Z,95582.81
2024-05-09T08:41:37.190Z,95574.59
2024-05-09T08:44:03.992Z,95573.28
2024-05-09T08:46:31.318Z,95579.16
2024-05-09T08:48:59.429Z,95584.28
2024-05-09T08:51:26.339Z,95582.97
2024-05-09T08:53:55.890Z,95577.13
2024-05-09T08:56:29.981Z,95577.44
2024-05-09T08:59:00.824Z,95578.78
2024-05-09T09:04:10.678Z,95563.84
2024-05-09T09:06:37.728Z,95568.63
2024-05-09T09:09:08.440Z,95560.03
2024-05-09T09:11:35.112Z,95553.31
2024-05-09T09:14:01.923Z,95557.28
2024-05-09T09:16:32.490Z,95558.78
2024-05-09T09:18:59.351Z,95554.09
2024-05-09T09:21:26.063Z,95559.13
2024-05-09T09:23:52.709Z,95556.38
2024-05-09T09:26:22.120Z,95558.94
2024-05-09T09:28:48.880Z,95559.47
2024-05-09T09:31:18.789Z,95553.31
2024-05-09T09:33:45.779Z,95558.72
2024-05-09T09:36:15.274Z,95562.00
2024-05-09T09:38:42.531Z,95558.94
2024-05-09T09:41:10.911Z,95557.38
2024-05-09T09:43:41.179Z,95556.56
2024-05-09T09:46:11.583Z,95556.28
2024-05-09T09:48:40.038Z,95553.38
2024-05-09T09:51:07.827Z,95555.75
2024-05-09T09:53:35.067Z,95555.75
2024-05-09T09:56:03.206Z,95553.63
2024-05-09T09:58:31.189Z,95553.13
2024-05-09T10:01:00.573Z,95551.03
2024-05-09T10:03:27.776Z,95550.81
2024-05-09T10:05:54.998Z,95552.69
2024-05-09T10:08:23.075Z,95553.72
2024-05-09T10:10:50.767Z,95543.34
2024-05-09T10:13:17.973Z,95548.09
2024-05-09T10:15:45.802Z,95544.06
2024-05-09T10:18:15.594Z,95542.22
2024-05-09T10:20:42.827Z,95551.25
2024-05-09T10:23:26.087Z,95548.88
2024-05-09T10:25:56.868Z,95549.91
2024-05-09T10:28:25.349Z,95553.38
2024-05-09T10:30:59.655Z,95537.81
2024-05-09T10:33:35.265Z,95547.88
2024-05-09T10:36:03.097Z,95535.09
2024-05-09T10:38:30.150Z,95529.72
2024-05-09T10:40:57.015Z,95529.47
2024-05-09T10:43:23.853Z,95532.47
2024-05-09T10:45:51.658Z,95522.66
2024-05-09T10:48:18.394Z,95524.31
2024-05-09T10:50:47.680Z,95534.28
2024-05-09T10:53:14.564Z,95521.22
2024-05-09T10:55:41.341Z,95526.34
2024-05-09T10:58:16.187Z,95522.22
2024-05-09T11:00:42.941Z,95521.56
2024-05-09T11:03:10.923Z,95512.63
2024-05-09T11:05:38.140Z,95514.69
2024-05-09T11:08:08.068Z,95504.38
2024-05-09T11:10:35.043Z,95510.88
2024-05-09T11:13:01.873Z,95505.34
2024-05-09T11:15:37.477Z,95506.13
2024-05-09T11:18:04.430Z,95516.53
2024-05-09T11:20:35.480Z,95514.72
2024-05-09T11:23:04.312Z,95526.72
2024-05-09T11:25:33.708Z,95518.88
2024-05-09T11:28:00.811Z,95519.84
2024-05-09T11:30:31.992Z,95515.47
2024-05-09T11:32:59.592Z,95519.09
2024-05-09T11:35:27.017Z,95516.78
2024-05-09T11:37:53.766Z,95518.41
2024-05-09T11:40:25.618Z,95512.63
2024-05-09T11:43:01.257Z,95518.09
2024-05-09T11:45:28.241Z,95508.75
2024-05-09T11:47:55.140Z,95506.09
2024-05-09T11:50:27.325Z,95503.38
2024-05-09T11:52:59.119Z,95500.19
2024-05-09T11:55:28.128Z,95502.00
2024-05-09T11:57:55.335Z,95493.31
2024-05-09T12:00:33.022Z,95496.59
2024-05-09T12:03:05.189Z,95491.94
2024-05-09T12:05:32.862Z,95493.78
2024-05-09T12:08:00.556Z,95487.25
2024-05-09T12:10:33.121Z,95480.16
2024-05-09T12:13:02.650Z,95481.06
2024-05-09T12:15:32.773Z,95478.69
2024-05-09T12:18:02.756Z,95476.47
2024-05-09T12:20:36.724Z,95476.38
2024-05-09T12:23:05.898Z,95480.13
2024-05-09T12:25:32.813Z,95480.19
2024-05-09T12:27:59.602Z,95484.13
2024-05-09T12:30:35.357Z,95472.97
2024-05-09T12:33:09.736Z,95472.50
2024-05-09T12:35:36.786Z,95476.75
2024-05-09T12:38:04.172Z,95470.59
2024-05-09T12:40:35.943Z,95473.34
2024-05-09T12:43:05.428Z,95470.03
2024-05-09T12:45:32.365Z,95479.53
2024-05-09T12:47:59.467Z,95473.47
2024-05-09T12:50:33.245Z,95472.22
2024-05-09T12:53:01.919Z,95469.09
2024-05-09T12:55:33.890Z,95466.44
2024-05-09T12:58:08.273Z,95454.50
2024-05-09T13:00:35.586Z,95459.78
2024-05-09T13:03:02.733Z,95460.81
2024-05-09T13:05:32.345Z,95462.38
2024-05-09T13:08:00.527Z,95459.72
2024-05-09T13:10:32.068Z,95446.44
2024-05-09T13:13:01.042Z,95443.50
2024-05-09T13:15:28.567Z,95446.22
2024-05-09T13:17:58.119Z,95439.97
2024-05-09T13:20:32.422Z,95444.53
2024-05-09T13:23:04.831Z,95434.84
2024-05-09T13:25:32.251Z,95430.25
2024-05-09T13:27:59.202Z,95435.47
2024-05-09T13:30:33.679Z,95432.88
2024-05-09T13:33:06.487Z,95425.78
2024-05-09T13:35:35.209Z,95431.22
2024-05-09T13:38:05.530Z,95430.94
2024-05-09T13:40:34.959Z,95421.41
2024-05-09T13:43:03.397Z,95424.47
2024-05-09T13:45:30.298Z,95428.28
2024-05-09T13:47:57.254Z,95424.81
2024-05-09T13:50:32.927Z,95428.94
2024-05-09T13:53:07.054Z,95417.75
2024-05-09T13:55:35.374Z,95414.66
2024-05-09T13:58:02.816Z,95425.44
2024-05-09T14:00:41.986Z,95418.56
2024-05-09T14:03:14.013Z,95430.22
2024-05-09T14:05:41.151Z,95423.19
2024-05-09T14:08:11.106Z,95421.09
2024-05-09T14:10:43.987Z,95422.09
2024-05-09T14:13:11.501Z,95418.56
2024-05-09T14:15:38.280Z,95420.16
2024-05-09T14:18:05.990Z,95403.31
2024-05-09T14:20:33.317Z,95413.53
2024-05-09T14:23:00.550Z,95411.41
2024-05-09T14:25:32.735Z,95407.16
2024-05-09T14:28:00.480Z,95406.81
2024-05-09T14:30:34.812Z,95411.63
2024-05-09T14:33:05.235Z,95397.69
2024-05-09T14:35:32.675Z,95399.78
2024-05-09T14:37:59.337Z,95401.38
2024-05-09T14:40:36.686Z,95390.88
2024-05-09T14:43:11.263Z,95395.84
2024-05-09T14:45:38.332Z,95392.63
2024-05-09T14:48:05.434Z,95391.31
2024-05-09T14:50:37.325Z,95391.81
2024-05-09T14:53:06.764Z,95382.78
2024-05-09T14:55:40.013Z,95391.81
2024-05-09T14:58:10.692Z,95381.41
2024-05-09T15:00:40.393Z,95386.75
2024-05-09T15:03:10.221Z,95388.25
2024-05-09T15:05:36.917Z,95384.22
2024-05-09T15:08:05.680Z,95379.97
2024-05-09T15:10:35.696Z,95384.22
2024-05-09T15:13:04.146Z,95386.88
2024-05-09T15:15:34.054Z,95388.78
2024-05-09T15:18:00.871Z,95381.09
2024-05-09T15:20:34.334Z,95378.81
2024-05-09T15:23:03.544Z,95376.41
2024-05-09T15:25:30.844Z,95373.53
2024-05-09T15:27:57.784Z,95371.88
2024-05-09T15:30:30.582Z,95369.69
2024-05-09T15:33:06.225Z,95376.13
2024-05-09T15:35:34.100Z,95370.97
2024-05-09T15:38:02.811Z,95363.28
2024-05-09T15:40:37.234Z,95366.53
2024-05-09T15:43:07.435Z,95362.31
2024-05-09T15:45:34.781Z,95361.34
2024-05-09T15:48:05.473Z,95363.50
2024-05-09T15:50:38.214Z,95358.16
2024-05-09T15:53:08.310Z,95363.41
2024-05-09T15:55:35.933Z,95361.75
2024-05-09T15:58:04.164Z,95363.94
2024-05-09T16:00:38.709Z,95352.13
2024-05-09T16:03:12.512Z,95355.59
2024-05-09T16:05:41.034Z,95354.81
2024-05-09T16:08:08.500Z,95357.22
2024-05-09T16:10:36.068Z,95356.09
2024-05-09T16:13:03.700Z,95352.94
2024-05-09T16:15:30.970Z,95352.66
2024-05-09T16:17:58.104Z,95350.19
2024-05-09T16:20:35.209Z,95350.19
2024-05-09T16:23:06.896Z,95352.94
2024-05-09T16:25:33.640Z,95355.59
2024-05-09T16:28:00.694Z,95348.09
2024-05-09T16:30:34.011Z,95345.69
2024-05-09T16:33:03.015Z,95338.47
2024-05-09T16:35:32.653Z,95336.59
2024-05-09T16:38:01.116Z,95338.69
2024-05-09T16:40:36.151Z,95341.56
2024-05-09T16:43:06.649Z,95337.75
2024-05-09T16:45:33.836Z,95345.09
2024-05-09T16:48:01.543Z,95343.72
2024-05-09T16:50:32.745Z,95346.16
2024-05-09T16:53:04.993Z,95345.44
2024-05-09T16:55:32.426Z,95344.63
2024-05-09T16:57:59.331Z,95347.44
2024-05-09T17:00:36.079Z,95343.81
2024-05-09T17:03:08.816Z,95343.94
2024-05-09T17:05:36.363Z,95346.72
2024-05-09T17:08:07.266Z,95354.00
2024-05-09T17:10:35.964Z,95340.69
2024-05-09T17:13:04.645Z,95346.84
2024-05-09T17:15:33.281Z,95353.06
2024-05-09T17:18:00.691Z,95350.97
2024-05-09T17:20:33.096Z,95356.91
2024-05-09T17:23:02.919Z,95353.47
2024-05-09T17:25:32.289Z,95350.31
2024-05-09T17:28:06.904Z,95347.13
2024-05-09T17:30:36.660Z,95350.06
2024-05-09T17:33:05.938Z,95357.28
2024-05-09T17:35:32.741Z,95355.72
2024-05-09T17:37:59.854Z,95355.47
2024-05-09T17:40:32.793Z,95355.53
2024-05-09T17:43:06.272Z,95356.13
2024-05-09T17:45:34.232Z,95356.69
2024-05-09T17:48:01.644Z,95363.97
2024-05-09T17:50:35.111Z,95361.88
2024-05-09T17:53:04.212Z,95361.38
2024-05-09T17:55:31.002Z,95363.00
2024-05-09T17:57:57.899Z,95365.44
2024-05-09T18:00:36.752Z,95365.50
2024-05-09T18:03:07.281Z,95361.53
2024-05-09T18:05:34.682Z,95358.34
2024-05-09T18:08:01.522Z,95355.19
2024-05-09T18:10:35.212Z,95359.97
2024-05-09T18:13:05.808Z,95357.56
2024-05-09T18:15:36.055Z,95360.03
2024-05-09T18:18:03.657Z,95353.94
2024-05-09T18:20:40.338Z,95355.31
2024-05-09T18:23:11.228Z,95363.38
2024-05-09T18:25:37.911Z,95356.78
2024-05-09T18:28:05.427Z,95366.97
2024-05-09T18:30:35.412Z,95368.09
2024-05-09T18:33:08.001Z,95361.25
2024-05-09T18:35:35.601Z,95369.00
2024-05-09T18:38:02.634Z,95361.78
2024-05-09T18:40:34.420Z,95374.31
2024-05-09T18:43:04.663Z,95365.00
2024-05-09T18:45:32.448Z,95371.44
2024-05-09T18:48:00.023Z,95374.38
2024-05-09T18:50:35.604Z,95372.00
2024-05-09T18:53:05.931Z,95372.53
2024-05-09T18:55:32.747Z,95376.84
2024-05-09T18:57:59.547Z,95380.06
2024-05-09T19:00:33.625Z,95372.88
2024-05-09T19:03:05.654Z,95381.94
2024-05-09T19:05:36.304Z,95381.44
2024-05-09T19:08:03.396Z,95388.13
2024-05-09T19:10:34.328Z,95391.84
2024-05-09T19:13:05.738Z,95389.47
2024-05-09T19:15:36.142Z,95390.25
2024-05-09T19:18:03.585Z,95392.41
2024-05-09T19:20:34.500Z,95398.84
2024-05-09T19:23:06.154Z,95402.34
2024-05-09T19:25:33.315Z,95408.75
2024-05-09T19:28:00.081Z,95404.78
2024-05-09T19:30:36.418Z,95405.03
2024-05-09T19:33:07.563Z,95402.94
2024-05-09T19:35:34.338Z,95402.69
2024-05-09T19:38:01.182Z,95406.41
2024-05-09T19:40:32.786Z,95405.63
2024-05-09T19:43:02.348Z,95401.09
2024-05-09T19:45:29.760Z,95405.38
2024-05-09T19:47:56.593Z,95406.72
2024-05-09T19:50:32.142Z,95404.31
2024-05-09T19:53:06.691Z,95408.09
2024-05-09T19:55:35.952Z,95412.34
2024-05-09T19:58:04.905Z,95410.53
2024-05-09T20:00:36.223Z,95414.28
2024-05-09T20:03:05.269Z,95414.84
2024-05-09T20:05:32.330Z,95419.97
2024-05-09T20:07:59.329Z,95421.03
2024-05-09T20:10:31.467Z,95423.75
2024-05-09T20:13:03.233Z,95420.81
2024-05-09T20:15:30.640Z,95421.38
2024-05-09T20:17:57.463Z,95420.56
2024-05-09T20:20:33.031Z,95419.25
2024-05-09T20:23:05.144Z,95419.50
2024-05-09T20:25:31.760Z,95423.50
2024-05-09T20:27:58.824Z,95418.97
2024-05-09T20:30:32.291Z,95418.97
2024-05-09T20:33:02.296Z,95413.91
2024-05-09T20:35:31.635Z,95415.78
2024-05-09T20:38:27.113Z,95419.50
2024-05-09T20:40:53.882Z,95416.59
2024-05-09T20:43:21.043Z,95416.06
2024-05-09T20:45:50.581Z,95420.06
2024-05-09T20:48:18.061Z,95420.34
2024-05-09T20:50:44.980Z,95422.22
2024-05-09T20:53:13.535Z,95410.78
2024-05-09T20:55:43.031Z,95410.56
2024-05-09T20:58:11.258Z,95414.00
2024-05-09T21:00:42.783Z,95418.81
2024-05-09T21:03:16.794Z,95417.75
2024-05-09T21:05:46.627Z,95416.16
2024-05-09T21:08:19.708Z,95413.50
2024-05-09T21:10:46.840Z,95415.09
2024-05-09T21:13:13.742Z,95414.59
2024-05-09T21:15:41.133Z,95411.09
2024-05-09T21:18:10.196Z,95410.31
2024-05-09T21:20:39.908Z,95413.50
2024-05-09T21:23:06.903Z,95412.16
2024-05-09T21:25:41.613Z,95410.56
2024-05-09T21:28:09.217Z,95409.25
2024-05-09T21:30:41.772Z,95403.13
2024-05-09T21:33:11.655Z,95406.84
2024-05-09T21:35:45.380Z,95408.94
2024-05-09T21:38:14.110Z,95402.53
2024-05-09T21:40:41.372Z,95400.41
2024-05-09T21:43:09.373Z,95403.53
2024-05-09T21:45:37.926Z,95400.84
2024-05-09T21:48:07.112Z,95403.47
2024-05-09T21:50:40.871Z,95402.66
2024-05-09T21:53:13.452Z,95403.19
2024-05-09T21:55:40.757Z,95403.94
2024-05-09T21:58:08.066Z,95401.28
2024-05-09T22:00:38.189Z,95403.63
2024-05-09T22:03:06.435Z,95400.69
2024-05-09T22:05:33.945Z,95406.19
2024-05-09T22:08:00.906Z,95403.50
2024-05-09T22:10:34.291Z,95411.09
2024-05-09T22:13:03.014Z,95407.31
2024-05-09T22:15:30.166Z,95407.25
2024-05-09T22:17:57.538Z,95403.50
2024-05-09T22:20:33.543Z,95408.50
2024-05-09T22:23:04.646Z,95403.44
2024-05-09T22:25:34.264Z,95410.56
2024-05-09T22:28:01.791Z,95408.13
2024-05-09T22:30:35.817Z,95402.00
2024-05-09T22:33:06.449Z,95408.31
2024-05-09T22:35:33.451Z,95407.72
2024-05-09T22:38:00.128Z,95406.31
2024-05-09T22:40:38.287Z,95410.03
2024-05-09T22:43:16.349Z,95409.19
2024-05-09T22:45:43.113Z,95411.22
2024-05-09T22:48:10.174Z,95413.28
2024-05-09T22:50:36.918Z,95408.16
2024-05-09T22:53:03.622Z,95404.31
2024-05-09T22:55:30.331Z,95402.19
2024-05-09T22:57:57.205Z,95404.31
2024-05-09T23:00:31.481Z,95405.88
2024-05-09T23:03:00.034Z,95393.72
2024-05-09T23:05:27.175Z,95393.38
2024-05-09T23:07:53.913Z,95394.94
2024-05-09T23:10:27.783Z,95395.94
2024-05-09T23:12:59.340Z,95397.59
2024-05-09T23:15:28.624Z,95391.16
2024-05-09T23:17:55.557Z,95397.91
2024-05-09T23:20:33.168Z,95393.63
2024-05-09T23:23:05.839Z,95391.09
2024-05-09T23:25:32.646Z,95384.94
2024-05-09T23:28:00.883Z,95380.88
2024-05-09T23:30:44.286Z,95379.94
2024-05-09T23:33:13.247Z,95392.50
2024-05-09T23:35:41.892Z,95383.44
2024-05-09T23:38:09.394Z,95378.88
2024-05-09T23:40:40.528Z,95374.88
2024-05-09T23:43:10.385Z,95369.03
2024-05-09T23:45:43.639Z,95364.06
2024-05-09T23:48:13.720Z,95358.50
2024-05-09T23:50:45.987Z,95355.34
2024-05-09T23:53:14.511Z,95349.41
2024-05-09T23:55:42.224Z,95344.84
2024-05-09T23:58:11.388Z,95348.22
